createdAt,value
2023-07-14T00:00:14.388Z,2.67
2023-07-14T00:02:40.926Z,2.30
2023-07-14T00:05:13.947Z,2.58
2023-07-14T00:07:40.440Z,2.30
2023-07-14T00:10:14.280Z,1.80
2023-07-14T00:12:42.117Z,2.20
2023-07-14T00:15:09.231Z,2.38
2023-07-14T00:17:35.764Z,2.10
2023-07-14T00:20:02.404Z,2.78
2023-07-14T00:22:30.248Z,2.88
2023-07-14T00:24:56.753Z,2.58
2023-07-14T00:27:24.190Z,2.40
2023-07-14T00:29:52.081Z,2.08
2023-07-14T00:32:20.478Z,2.17
2023-07-14T00:34:47.905Z,2.47
2023-07-14T00:37:14.502Z,2.72
2023-07-14T00:39:42.220Z,2.75
2023-07-14T00:42:12.923Z,2.60
2023-07-14T00:44:39.405Z,2.83
2023-07-14T00:47:18.341Z,2.47
2023-07-14T00:49:44.810Z,2.38
2023-07-14T00:52:17.818Z,2.70
2023-07-14T00:54:49.300Z,2.30
2023-07-14T00:57:17.417Z,2.25
2023-07-14T00:59:43.907Z,2.33
2023-07-14T01:02:19.976Z,2.40
2023-07-14T01:04:50.466Z,2.13
2023-07-14T01:07:18.726Z,2.55
2023-07-14T01:09:47.035Z,2.22
2023-07-14T01:12:16.217Z,2.80
2023-07-14T01:14:45.396Z,2.38
2023-07-14T01:17:12.587Z,2.38
2023-07-14T01:19:44.601Z,2.40
2023-07-14T01:22:18.421Z,2.33
2023-07-14T01:24:53.255Z,2.38
2023-07-14T01:27:21.122Z,2.33
2023-07-14T01:29:47.861Z,2.47
2023-07-14T01:32:17.819Z,2.47
2023-07-14T01:34:44.520Z,2.17
2023-07-14T01:37:11.780Z,2.00
2023-07-14T01:39:39.088Z,2.08
2023-07-14T01:42:06.346Z,2.35
2023-07-14T01:44:35.278Z,2.80
2023-07-14T01:47:02.491Z,2.00
2023-07-14T01:49:37.284Z,2.47
2023-07-14T01:52:06.247Z,2.28
2023-07-14T01:54:36.769Z,2.58
2023-07-14T01:57:09.954Z,2.25
2023-07-14T01:59:40.755Z,2.20
2023-07-14T02:02:12.025Z,4.25
2023-07-14T02:04:40.369Z,2.65
2023-07-14T02:07:12.921Z,2.10
2023-07-14T02:09:39.579Z,2.40
2023-07-14T02:12:07.810Z,3.07
2023-07-14T02:14:42.428Z,3.13
2023-07-14T02:17:18.220Z,2.78
2023-07-14T02:19:45.322Z,2.60
2023-07-14T02:24:38.710Z,2.85
2023-07-14T02:27:05.782Z,2.15
2023-07-14T02:29:32.704Z,2.75
2023-07-14T02:32:03.822Z,3.03
2023-07-14T02:34:35.520Z,2.50
2023-07-14T02:37:04.898Z,2.47
2023-07-14T02:39:35.076Z,2.63
2023-07-14T02:42:01.655Z,2.50
2023-07-14T02:44:33.138Z,2.50
2023-07-14T02:47:05.722Z,2.35
2023-07-14T02:49:32.351Z,2.38
2023-07-14T02:51:58.840Z,2.53
2023-07-14T02:54:25.370Z,2.55
2023-07-14T02:56:51.907Z,2.67
2023-07-14T02:59:18.427Z,2.70
2023-07-14T03:01:44.932Z,2.65
2023-07-14T03:04:12.832Z,2.50
2023-07-14T03:06:39.360Z,2.55
2023-07-14T03:09:05.831Z,2.75
2023-07-14T03:11:32.324Z,2.67
2023-07-14T03:13:58.829Z,3.25
2023-07-14T03:16:27.018Z,2.50
2023-07-14T03:18:53.583Z,2.70
2023-07-14T03:21:22.419Z,2.50
2023-07-14T03:23:48.904Z,2.72
2023-07-14T03:26:15.388Z,2.70
2023-07-14T03:28:41.872Z,2.33
2023-07-14T03:31:08.358Z,3.03
2023-07-14T03:33:34.931Z,3.25
2023-07-14T03:36:02.493Z,2.80
2023-07-14T03:38:30.368Z,3.33
2023-07-14T03:40:56.955Z,2.75
2023-07-14T03:43:23.425Z,2.80
2023-07-14T03:45:49.941Z,2.85
2023-07-14T03:48:16.456Z,2.97
2023-07-14T03:50:42.970Z,3.20
2023-07-14T03:53:09.436Z,2.55
2023-07-14T03:55:37.259Z,2.60
2023-07-14T03:58:04.632Z,2.65
2023-07-14T04:00:32.008Z,3.33
2023-07-14T04:02:58.597Z,2.67
2023-07-14T04:05:25.539Z,2.70
2023-07-14T04:07:52.054Z,3.35
2023-07-14T04:10:19.083Z,3.35
2023-07-14T04:12:49.513Z,2.90
2023-07-14T04:15:16.108Z,2.50
2023-07-14T04:17:42.666Z,3.13
2023-07-14T04:20:10.453Z,2.40
2023-07-14T04:22:37.062Z,2.55
2023-07-14T04:25:03.855Z,2.50
2023-07-14T04:27:30.351Z,2.73
2023-07-14T04:29:58.210Z,2.90
2023-07-14T04:32:24.739Z,2.65
2023-07-14T04:34:51.231Z,2.80
2023-07-14T04:37:17.727Z,2.72
2023-07-14T04:39:44.334Z,2.45
2023-07-14T04:42:10.790Z,2.60
2023-07-14T04:44:37.283Z,2.75
2023-07-14T04:47:05.332Z,2.85
2023-07-14T04:49:31.836Z,2.63
2023-07-14T04:51:58.432Z,2.90
2023-07-14T04:54:25.058Z,2.95
2023-07-14T04:56:52.069Z,2.50
2023-07-14T04:59:18.897Z,2.50
2023-07-14T05:01:45.518Z,2.47
2023-07-14T05:04:13.469Z,2.33
2023-07-14T05:06:39.998Z,2.90
2023-07-14T05:09:06.524Z,4.17
2023-07-14T05:11:33.025Z,3.25
2023-07-14T05:13:59.657Z,2.60
2023-07-14T05:16:26.192Z,2.75
2023-07-14T05:18:52.877Z,2.40
2023-07-14T05:21:20.711Z,3.13
2023-07-14T05:23:47.265Z,3.13
2023-07-14T05:28:41.624Z,2.67
2023-07-14T05:31:09.079Z,2.58
2023-07-14T05:36:01.922Z,2.53
2023-07-14T05:38:29.781Z,2.25
2023-07-14T05:40:58.456Z,2.03
2023-07-14T05:43:27.188Z,1.90
2023-07-14T05:45:53.711Z,2.42
2023-07-14T05:48:20.291Z,2.90
2023-07-14T05:50:47.691Z,2.03
2023-07-14T05:53:16.047Z,2.47
2023-07-14T05:55:43.913Z,2.00
2023-07-14T05:58:10.598Z,1.80
2023-07-14T06:00:39.796Z,2.20
2023-07-14T06:03:07.852Z,2.30
2023-07-14T06:05:34.958Z,3.22
2023-07-14T06:08:01.519Z,2.72
2023-07-14T06:10:28.016Z,2.73
2023-07-14T06:12:55.801Z,2.85
2023-07-14T06:15:22.279Z,3.30
2023-07-14T06:17:48.976Z,2.78
2023-07-14T06:20:15.629Z,2.55
2023-07-14T06:22:42.316Z,2.07
2023-07-14T06:25:09.375Z,2.83
2023-07-14T06:27:35.997Z,1.75
2023-07-14T06:30:04.439Z,2.13
2023-07-14T06:32:31.019Z,2.08
2023-07-14T06:34:57.620Z,2.50
2023-07-14T06:37:24.739Z,2.00
2023-07-14T06:39:51.237Z,1.90
2023-07-14T06:42:17.915Z,2.17
2023-07-14T06:44:44.569Z,2.00
2023-07-14T06:47:14.021Z,2.40
2023-07-14T06:50:05.103Z,1.73
2023-07-14T06:52:31.711Z,1.73
2023-07-14T06:54:58.332Z,1.83
2023-07-14T06:57:24.801Z,2.20
2023-07-14T06:59:51.302Z,1.80
2023-07-14T07:02:19.441Z,1.63
2023-07-14T07:04:46.114Z,1.85
2023-07-14T07:07:12.662Z,1.77
2023-07-14T07:09:39.180Z,1.80
2023-07-14T07:12:06.953Z,1.80
2023-07-14T07:14:33.424Z,2.03
2023-07-14T07:17:00.103Z,2.20
2023-07-14T07:19:28.224Z,1.67
2023-07-14T07:21:55.147Z,1.80
2023-07-14T07:24:21.906Z,2.28
2023-07-14T07:26:48.510Z,1.50
2023-07-14T07:29:14.999Z,1.52
2023-07-14T07:31:41.508Z,2.07
2023-07-14T07:34:08.169Z,1.80
2023-07-14T07:36:36.065Z,1.65
2023-07-14T07:39:02.616Z,1.70
2023-07-14T07:41:29.094Z,1.00
2023-07-14T07:43:55.629Z,1.93
2023-07-14T07:46:22.599Z,1.57
2023-07-14T07:48:49.628Z,2.00
2023-07-14T07:51:16.736Z,1.88
2023-07-14T07:53:44.642Z,1.73
2023-07-14T07:56:11.624Z,1.83
2023-07-14T08:01:06.028Z,1.90
2023-07-14T08:03:34.343Z,2.03
2023-07-14T08:06:02.745Z,1.92
2023-07-14T08:08:29.745Z,2.00
2023-07-14T08:10:58.203Z,1.60
2023-07-14T08:13:25.163Z,1.60
2023-07-14T08:15:52.884Z,1.60
2023-07-14T08:18:19.427Z,1.88
2023-07-14T08:20:46.047Z,1.50
2023-07-14T08:23:13.441Z,1.98
2023-07-14T08:25:39.971Z,1.85
2023-07-14T08:28:08.163Z,1.50
2023-07-14T08:30:34.940Z,1.90
2023-07-14T08:33:01.601Z,1.67
2023-07-14T08:35:28.118Z,1.65
2023-07-14T08:37:54.909Z,1.60
2023-07-14T08:40:27.824Z,2.05
2023-07-14T08:43:13.893Z,2.00
2023-07-14T08:45:46.921Z,1.88
2023-07-14T08:48:26.881Z,1.70
2023-07-14T08:50:57.382Z,1.50
2023-07-14T08:53:29.059Z,1.58
2023-07-14T08:56:01.789Z,1.65
2023-07-14T08:58:32.421Z,1.88
2023-07-14T09:01:04.831Z,1.75
2023-07-14T09:03:36.580Z,1.70
2023-07-14T09:06:11.067Z,1.67
2023-07-14T09:08:37.756Z,1.90
2023-07-14T09:11:21.710Z,1.43
2023-07-14T09:13:57.671Z,1.40
2023-07-14T09:16:26.008Z,1.67
2023-07-14T09:19:03.117Z,1.60
2023-07-14T09:21:33.394Z,1.73
2023-07-14T09:24:23.329Z,1.67
2023-07-14T09:26:53.358Z,1.73
2023-07-14T09:29:35.052Z,1.70
2023-07-14T09:32:04.752Z,1.70
2023-07-14T09:34:34.501Z,2.95
2023-07-14T09:37:01.838Z,1.85
2023-07-14T09:39:34.609Z,1.75
2023-07-14T09:42:04.367Z,1.67
2023-07-14T09:44:32.240Z,1.73
2023-07-14T09:47:00.268Z,1.75
2023-07-14T09:49:32.272Z,1.98
2023-07-14T09:52:09.762Z,1.60
2023-07-14T09:54:41.951Z,1.73
2023-07-14T09:57:21.600Z,1.77
2023-07-14T09:59:58.999Z,1.77
2023-07-14T10:02:31.036Z,1.27
2023-07-14T10:05:01.694Z,1.88
2023-07-14T10:07:37.005Z,1.80
2023-07-14T10:10:05.461Z,2.10
2023-07-14T10:12:35.795Z,2.90
2023-07-14T10:15:23.667Z,1.83
2023-07-14T10:17:52.544Z,1.77
2023-07-14T10:20:20.796Z,1.42
2023-07-14T10:22:50.772Z,1.98
2023-07-14T10:25:19.038Z,1.70
2023-07-14T10:27:57.096Z,2.00
2023-07-14T10:30:45.964Z,1.30
2023-07-14T10:33:19.860Z,1.73
2023-07-14T10:35:46.585Z,1.80
2023-07-14T10:38:17.178Z,1.90
2023-07-14T10:40:56.440Z,1.48
2023-07-14T10:43:28.496Z,1.85
2023-07-14T10:46:00.767Z,1.58
2023-07-14T10:48:32.152Z,2.13
2023-07-14T10:51:02.726Z,1.45
2023-07-14T10:53:33.372Z,1.75
2023-07-14T10:56:06.350Z,1.73
2023-07-14T10:58:36.812Z,1.55
2023-07-14T11:01:10.652Z,1.70
2023-07-14T11:03:40.841Z,1.70
2023-07-14T11:06:12.996Z,2.10
2023-07-14T11:08:39.550Z,1.67
2023-07-14T11:11:14.204Z,1.75
2023-07-14T11:13:47.949Z,1.67
2023-07-14T11:16:23.860Z,1.77
2023-07-14T11:18:59.572Z,1.50
2023-07-14T11:21:34.928Z,1.35
2023-07-14T11:24:16.130Z,1.65
2023-07-14T11:27:00.014Z,1.50
2023-07-14T11:29:27.540Z,1.90
2023-07-14T11:31:58.718Z,1.50
2023-07-14T11:34:31.395Z,1.40
2023-07-14T11:37:04.934Z,1.52
2023-07-14T11:39:43.244Z,1.80
2023-07-14T11:42:17.901Z,2.10
2023-07-14T11:44:45.998Z,1.65
2023-07-14T11:47:19.499Z,1.88
2023-07-14T11:49:46.099Z,1.92
2023-07-14T11:52:20.420Z,1.40
2023-07-14T11:54:57.352Z,1.13
2023-07-14T11:57:24.193Z,1.90
2023-07-14T11:59:59.650Z,1.20
2023-07-14T12:02:38.666Z,1.20
2023-07-14T12:05:34.108Z,1.40
2023-07-14T12:08:21.941Z,1.50
2023-07-14T12:10:48.577Z,1.55
2023-07-14T12:13:27.666Z,1.38
2023-07-14T12:16:14.479Z,1.52
2023-07-14T12:19:04.799Z,1.42
2023-07-14T12:21:34.649Z,1.38
2023-07-14T12:24:10.951Z,1.95
2023-07-14T12:26:44.034Z,1.67
2023-07-14T12:29:13.170Z,1.77
2023-07-14T12:31:40.011Z,1.20
2023-07-14T12:34:15.078Z,1.70
2023-07-14T12:36:42.110Z,1.67
2023-07-14T12:39:09.060Z,1.60
2023-07-14T12:41:38.358Z,1.35
2023-07-14T12:44:05.401Z,1.50
2023-07-14T12:46:34.634Z,1.45
2023-07-14T12:49:03.606Z,1.75
2023-07-14T12:51:35.250Z,1.85
2023-07-14T12:54:04.156Z,1.60
2023-07-14T12:56:31.698Z,1.40
2023-07-14T12:59:00.434Z,1.85
2023-07-14T13:01:26.985Z,1.30
2023-07-14T13:06:22.988Z,1.40
2023-07-14T13:08:52.578Z,1.45
2023-07-14T13:11:20.942Z,1.25
2023-07-14T13:13:53.395Z,1.33
2023-07-14T13:16:20.575Z,1.80
2023-07-14T13:18:55.981Z,1.60
2023-07-14T13:21:35.195Z,1.48
2023-07-14T13:24:14.606Z,1.70
2023-07-14T13:26:51.781Z,2.05
2023-07-14T13:29:22.484Z,1.45
2023-07-14T13:31:53.818Z,1.40
2023-07-14T13:34:23.194Z,1.45
2023-07-14T13:36:51.538Z,1.80
2023-07-14T13:39:25.214Z,1.45
2023-07-14T13:41:59.766Z,1.38
2023-07-14T13:44:45.538Z,1.48
2023-07-14T13:47:18.625Z,1.80
2023-07-14T13:49:45.986Z,1.40
2023-07-14T13:54:43.395Z,1.50
2023-07-14T13:57:11.004Z,1.38
2023-07-14T13:59:37.521Z,1.27
2023-07-14T14:02:19.940Z,1.58
2023-07-14T14:04:46.463Z,1.48
2023-07-14T14:07:12.962Z,1.08
2023-07-14T14:09:40.785Z,1.50
2023-07-14T14:12:08.237Z,1.75
2023-07-14T14:14:34.748Z,1.30
2023-07-14T14:17:01.621Z,1.50
2023-07-14T14:19:28.762Z,1.52
2023-07-14T14:22:00.455Z,1.70
2023-07-14T14:24:27.103Z,1.40
2023-07-14T14:26:56.853Z,1.38
2023-07-14T14:29:24.889Z,1.73
2023-07-14T14:31:51.354Z,1.70
2023-07-14T14:34:17.832Z,2.55
2023-07-14T14:36:44.338Z,1.55
2023-07-14T14:39:15.055Z,1.50
2023-07-14T14:41:43.516Z,1.98
2023-07-14T14:44:17.974Z,1.60
2023-07-14T14:46:44.852Z,1.35
2023-07-14T14:51:38.559Z,1.38
2023-07-14T14:54:05.070Z,1.35
2023-07-14T14:56:33.566Z,1.33
2023-07-14T14:59:06.184Z,2.03
2023-07-14T15:01:36.235Z,1.63
2023-07-14T15:04:03.612Z,1.48
2023-07-14T15:06:30.446Z,1.55
2023-07-14T15:08:56.956Z,1.80
2023-07-14T15:11:24.044Z,1.40
2023-07-14T15:13:50.769Z,1.52
2023-07-14T15:16:18.132Z,1.30
2023-07-14T15:18:46.372Z,1.40
2023-07-14T15:21:15.600Z,1.70
2023-07-14T15:23:42.109Z,1.35
2023-07-14T15:26:16.942Z,1.30
2023-07-14T15:28:43.470Z,1.63
2023-07-14T15:31:12.295Z,1.40
2023-07-14T15:33:38.871Z,2.00
2023-07-14T15:36:06.854Z,1.88
2023-07-14T15:38:33.396Z,1.40
2023-07-14T15:40:59.885Z,1.70
2023-07-14T15:43:28.117Z,1.60
2023-07-14T15:45:57.392Z,1.58
2023-07-14T15:48:40.500Z,1.95
2023-07-14T15:51:16.924Z,1.60
2023-07-14T15:53:43.547Z,1.70
2023-07-14T15:56:15.801Z,1.92
2023-07-14T15:58:42.459Z,1.88
2023-07-14T16:01:26.379Z,1.80
2023-07-14T16:03:55.004Z,1.60
2023-07-14T16:06:24.292Z,2.25
2023-07-14T16:08:52.347Z,1.60
2023-07-14T16:11:20.665Z,1.60
2023-07-14T16:13:47.615Z,1.48
2023-07-14T16:16:14.310Z,2.08
2023-07-14T16:21:23.689Z,1.90
2023-07-14T16:23:51.819Z,2.05
2023-07-14T16:26:18.321Z,2.00
2023-07-14T16:28:44.841Z,3.30
2023-07-14T16:31:12.981Z,1.87
2023-07-14T16:33:39.644Z,2.10
2023-07-14T16:36:06.421Z,1.88
2023-07-14T16:38:33.133Z,2.13
2023-07-14T16:41:00.984Z,1.70
2023-07-14T16:43:27.451Z,1.65
2023-07-14T16:45:54.100Z,1.95
2023-07-14T16:48:21.045Z,2.35
2023-07-14T16:50:47.913Z,1.70
2023-07-14T16:53:16.903Z,2.05
2023-07-14T16:55:43.368Z,2.05
2023-07-14T16:58:17.638Z,1.48
2023-07-14T17:00:44.977Z,2.05
2023-07-14T17:03:22.674Z,1.80
2023-07-14T17:05:50.109Z,1.92
2023-07-14T17:08:19.261Z,1.80
2023-07-14T17:10:45.732Z,1.83
2023-07-14T17:13:25.968Z,1.87
2023-07-14T17:15:54.779Z,2.20
2023-07-14T17:18:22.973Z,2.03
2023-07-14T17:20:50.789Z,1.63
2023-07-14T17:23:20.126Z,2.20
2023-07-14T17:25:46.993Z,2.22
2023-07-14T17:28:18.091Z,1.90
2023-07-14T17:30:45.397Z,2.00
2023-07-14T17:35:38.394Z,2.20
2023-07-14T17:38:04.964Z,2.10
2023-07-14T17:40:32.645Z,1.63
2023-07-14T17:43:00.598Z,1.77
2023-07-14T17:45:28.436Z,1.52
2023-07-14T17:47:54.992Z,1.60
2023-07-14T17:50:23.595Z,1.98
2023-07-14T17:52:51.998Z,2.00
2023-07-14T17:55:21.117Z,2.22
2023-07-14T17:57:47.969Z,2.33
2023-07-14T18:00:15.984Z,1.70
2023-07-14T18:02:44.838Z,2.10
2023-07-14T18:05:16.460Z,1.60
2023-07-14T18:07:43.631Z,2.13
2023-07-14T18:10:10.474Z,1.90
2023-07-14T18:12:37.655Z,2.00
2023-07-14T18:15:16.113Z,2.28
2023-07-14T18:17:44.061Z,2.20
2023-07-14T18:20:13.990Z,1.85
2023-07-14T18:22:40.861Z,1.95
2023-07-14T18:25:14.334Z,2.15
2023-07-14T18:27:40.816Z,2.25
2023-07-14T18:30:14.800Z,1.70
2023-07-14T18:32:41.509Z,2.35
2023-07-14T18:35:22.448Z,1.83
2023-07-14T18:37:49.461Z,2.20
2023-07-14T18:40:16.869Z,2.00
2023-07-14T18:45:15.376Z,1.52
2023-07-14T18:47:41.877Z,1.98
2023-07-14T18:50:10.496Z,2.10
2023-07-14T18:52:38.968Z,2.33
2023-07-14T18:55:05.834Z,2.05
2023-07-14T18:57:32.308Z,2.05
2023-07-14T18:59:58.800Z,2.45
2023-07-14T19:02:28.833Z,2.07
2023-07-14T19:04:55.639Z,2.42
2023-07-14T19:07:22.148Z,2.13
2023-07-14T19:09:50.097Z,2.03
2023-07-14T19:12:20.593Z,2.25
2023-07-14T19:14:47.094Z,2.55
2023-07-14T19:17:14.411Z,2.80
2023-07-14T19:22:10.218Z,2.42
2023-07-14T19:24:36.761Z,2.47
2023-07-14T19:27:12.650Z,2.83
2023-07-14T19:29:39.095Z,2.15
2023-07-14T19:32:06.131Z,2.33
2023-07-14T19:34:33.344Z,2.28
2023-07-14T19:37:00.350Z,2.83
2023-07-14T19:39:26.847Z,2.65
2023-07-14T19:41:55.282Z,2.60
2023-07-14T19:44:23.656Z,2.13
2023-07-14T19:46:50.818Z,2.47
2023-07-14T19:49:20.632Z,3.40
2023-07-14T19:51:50.981Z,2.55
2023-07-14T19:54:19.342Z,2.67
2023-07-14T19:56:46.430Z,2.75
2023-07-14T19:59:13.931Z,2.35
2023-07-14T20:01:41.927Z,2.55
2023-07-14T20:04:08.726Z,2.72
2023-07-14T20:06:35.361Z,2.30
2023-07-14T20:09:01.894Z,2.75
2023-07-14T20:11:28.530Z,2.40
2023-07-14T20:13:55.506Z,3.00
2023-07-14T20:16:22.838Z,2.33
2023-07-14T20:21:24.457Z,2.40
2023-07-14T20:23:50.967Z,2.50
2023-07-14T20:26:17.454Z,2.80
2023-07-14T20:28:45.580Z,2.75
2023-07-14T20:31:14.021Z,2.83
2023-07-14T20:33:40.886Z,1.83
2023-07-14T20:36:13.824Z,2.92
2023-07-14T20:38:40.499Z,3.17
2023-07-14T20:41:16.560Z,3.00
2023-07-14T20:43:43.057Z,2.35
2023-07-14T20:46:22.774Z,2.67
2023-07-14T20:48:55.785Z,2.38
2023-07-14T20:51:30.346Z,2.80
2023-07-14T20:53:56.845Z,2.40
2023-07-14T20:56:23.354Z,2.80
2023-07-14T20:58:49.846Z,2.53
2023-07-14T21:01:19.410Z,2.10
2023-07-14T21:03:47.416Z,2.50
2023-07-14T21:06:16.620Z,2.40
2023-07-14T21:08:47.590Z,2.28
2023-07-14T21:11:16.168Z,2.38
2023-07-14T21:13:46.411Z,2.50
2023-07-14T21:16:14.071Z,2.67
2023-07-14T21:18:40.779Z,2.58
2023-07-14T21:21:21.917Z,2.40
2023-07-14T21:23:49.955Z,2.03
2023-07-14T21:26:23.656Z,2.35
2023-07-14T21:28:52.178Z,1.92
2023-07-14T21:31:19.159Z,2.08
2023-07-14T21:33:45.770Z,2.25
2023-07-14T21:36:17.306Z,2.40
2023-07-14T21:38:44.649Z,2.55
2023-07-14T21:43:41.182Z,2.55
2023-07-14T21:46:09.969Z,2.28
2023-07-14T21:48:36.449Z,2.38
2023-07-14T21:51:05.064Z,1.92
2023-07-14T21:53:33.538Z,2.08
2023-07-14T21:56:00.864Z,2.60
2023-07-14T21:58:31.182Z,2.60
2023-07-14T22:00:58.964Z,2.50
2023-07-14T22:03:27.816Z,2.42
2023-07-14T22:05:56.140Z,2.33
2023-07-14T22:08:25.217Z,2.10
2023-07-14T22:10:53.747Z,2.22
2023-07-14T22:13:23.446Z,2.42
2023-07-14T22:15:52.140Z,2.67
2023-07-14T22:18:31.899Z,2.35
2023-07-14T22:21:12.338Z,2.60
2023-07-14T22:23:39.790Z,2.28
2023-07-14T22:28:35.479Z,2.15
2023-07-14T22:31:03.429Z,2.50
2023-07-14T22:33:33.323Z,2.78
2023-07-14T22:36:01.368Z,2.17
2023-07-14T22:38:29.881Z,2.72
2023-07-14T22:41:01.899Z,2.67
2023-07-14T22:43:32.232Z,2.70
2023-07-14T22:45:58.861Z,2.05
2023-07-14T22:48:26.909Z,2.10
2023-07-14T22:50:57.600Z,2.03
2023-07-14T22:53:25.543Z,2.30
2023-07-14T22:55:53.487Z,2.85
2023-07-14T22:58:22.048Z,2.55
2023-07-14T23:00:55.056Z,2.55
2023-07-14T23:03:24.069Z,2.60
2023-07-14T23:05:53.111Z,2.33
2023-07-14T23:08:20.314Z,2.72
2023-07-14T23:10:50.478Z,2.65
2023-07-14T23:13:20.152Z,2.70
2023-07-14T23:15:46.624Z,2.65
2023-07-14T23:18:13.148Z,2.58
2023-07-14T23:20:39.989Z,2.60
2023-07-14T23:23:10.639Z,2.60
2023-07-14T23:25:37.221Z,2.85
2023-07-14T23:28:04.059Z,3.03
2023-07-14T23:30:31.138Z,2.92
2023-07-14T23:32:57.764Z,3.17
2023-07-14T23:35:25.946Z,2.33
2023-07-14T23:37:52.412Z,2.50
2023-07-14T23:40:20.515Z,2.85
2023-07-14T23:42:49.057Z,2.88
2023-07-14T23:45:19.917Z,2.85
2023-07-14T23:47:46.410Z,2.67
2023-07-14T23:50:13.328Z,1.70
2023-07-14T23:52:40.005Z,2.92
2023-07-14T23:55:13.530Z,2.67
2023-07-14T23:57:41.350Z,2.60
